KOLV/OLV METAR and TAF weather

Enter ICAO airport designator
Station Type Date Time Source
KOLV METAR 2020/10/29 16:50 UTC NOAA

KOLV 291650Z 21014G20KT 2SM BR BKN007 OVC014 10/10 A2976


Station Type Date Time Source
KOLV Decoded METAR 2020/10/29 16:50 UTC NOAA

Olive Branch, Olive Branch Airport, MS, United States (KOLV) 34-58-44N 089-47-13W
Oct 29, 2020 - 12:50 PM EDT / 2020.10.29 1650 UTC
Wind: from the SSW (210 degrees) at 16 MPH (14 KT) gusting to 23 MPH (20 KT):0
Visibility: 2 mile(s):0
Sky conditions: overcast
Weather: mist
Temperature: 50 F (10 C)
Dew Point: 50 F (10 C)
Relative Humidity: 100%
Pressure (altimeter): 29.76 in. Hg (1007 hPa)
ob: KOLV 291650Z 21014G20KT 2SM BR BKN007 OVC014 10/10 A2976
cycle: 17

Station Type Date Time Source
KOLV TAF UTC NOAA

Error!

Example: see airport list